Search for airport 
image banner adimage banner adimage banner ad
image banner ad

EKKV - Klaksvik

Located in Klaksvik, Faroe Islands

ICAO - EKKV, IATA -

Data provided by Airmate  

General information

Coordinates: N62°13'4" W6°34'35"
Elevation is 263 feet MSL.
Magnetic variation is -8.2° East
View others Airports in (unassigned)

Operational data

Special qualification required
Current time UTC:
Current local time:
Weather at : EKVG - Vagar ( 40 km )
METAR: EKVG 242320Z AUTO 14007KT 0750 R12/P1500N R30/P1500D FG OVC001/// 10/10 Q1013
TAF: TAF EKVG 241422Z 2415/2421 16008KT 9999 BKN004 TEMPO 2415/2421 0400 FG VV002
View NOTAMs / SUP AIP / TFR affecting this airport [VIEW]
Communications frequencies: [VIEW]

Runways:

Airport contact information

Address: Klaksvik Faroe Islands

Satellite view of EKKV